Time;durP1;ratioP1;P1;durP2;ratioP2;P2;SDS_P1;SDS_P2;PMS_P1;PMS_P2;Temp;Humidity;BMP_temperature;BMP_pressure;BME280_temperature;BME280_humidity;BME280_pressure;Samples;Min_cycle;Max_cycle;Signal;HPM_P1;HPM_P2
2022/07/31 00:01:19;;;;;;;1.88;1.40;;;27.20;49.10;;;;;;7366138;19;20150;-77
2022/07/31 00:03:48;;;;;;;1.90;1.40;;;27.20;49.10;;;;;;7363887;19;20014;-77
2022/07/31 00:06:19;;;;;;;3.92;1.10;;;27.20;49.20;;;;;;7363768;19;20085;-76
2022/07/31 00:08:50;;;;;;;2.33;1.30;;;27.20;49.10;;;;;;7365549;19;20391;-77
2022/07/31 00:11:21;;;;;;;4.10;1.38;;;27.20;49.10;;;;;;7389126;19;20082;-77
2022/07/31 00:13:53;;;;;;;3.13;1.20;;;27.20;49.20;;;;;;7366649;19;20669;-77
2022/07/31 00:16:21;;;;;;;1.92;1.10;;;27.20;49.30;;;;;;7361430;19;20047;-78
2022/07/31 00:18:50;;;;;;;1.42;1.00;;;27.20;49.30;;;;;;7363463;19;20648;-78
2022/07/31 00:21:21;;;;;;;1.42;1.30;;;27.10;49.40;;;;;;7365404;19;20030;-76
2022/07/31 00:23:50;;;;;;;3.45;1.50;;;27.10;49.50;;;;;;7366372;19;20408;-90
2022/07/31 00:26:19;;;;;;;2.80;1.30;;;27.10;49.40;;;;;;7393654;19;20014;-89
2022/07/31 00:28:48;;;;;;;1.27;1.17;;;27.00;49.60;;;;;;7376721;19;20020;-88
2022/07/31 00:31:20;;;;;;;3.22;1.48;;;27.00;49.70;;;;;;7375292;19;20010;-89
2022/07/31 00:33:48;;;;;;;3.03;1.23;;;26.90;49.80;;;;;;7375872;19;20596;-88
2022/07/31 00:36:17;;;;;;;1.90;1.40;;;26.90;49.80;;;;;;7375494;19;20018;-88
2022/07/31 00:38:46;;;;;;;2.20;1.42;;;26.90;49.90;;;;;;7377158;19;20031;-88
2022/07/31 00:41:15;;;;;;;1.88;0.88;;;26.80;50.00;;;;;;7396418;19;20018;-88
2022/07/31 00:43:44;;;;;;;3.65;1.00;;;26.80;50.00;;;;;;7377594;19;20015;-88
2022/07/31 00:46:13;;;;;;;2.28;1.02;;;26.70;50.10;;;;;;7379354;19;20018;-88
2022/07/31 00:48:44;;;;;;;2.30;1.00;;;26.70;50.10;;;;;;7379881;19;20018;-88
2022/07/31 00:51:13;;;;;;;2.05;1.10;;;26.70;50.10;;;;;;7383759;19;20232;-89
2022/07/31 00:53:41;;;;;;;2.50;1.10;;;26.70;50.00;;;;;;7388824;19;20015;-89
2022/07/31 00:56:10;;;;;;;1.92;1.10;;;26.70;50.00;;;;;;7412536;19;20026;-90
2022/07/31 00:58:39;;;;;;;3.85;1.27;;;26.70;50.10;;;;;;7397691;19;20023;-90
2022/07/31 01:01:08;;;;;;;1.95;1.10;;;26.70;50.30;;;;;;7391198;19;20007;-88
2022/07/31 01:03:36;;;;;;;1.40;1.05;;;26.70;50.40;;;;;;7384098;19;20387;-88
2022/07/31 01:06:12;;;;;;;2.65;1.20;;;26.60;50.50;;;;;;7381945;19;20102;-88
2022/07/31 01:08:41;;;;;;;0.90;0.90;;;26.50;50.50;;;;;;7385720;19;20015;-88
2022/07/31 01:11:15;;;;;;;2.25;1.15;;;26.50;50.50;;;;;;7408173;19;20055;-89
2022/07/31 01:13:51;;;;;;;2.42;1.10;;;26.50;50.60;;;;;;7394451;19;20035;-89
2022/07/31 01:16:20;;;;;;;1.20;1.10;;;26.40;50.60;;;;;;7395798;19;20371;-89
2022/07/31 01:18:51;;;;;;;2.55;1.08;;;26.40;50.60;;;;;;7390933;19;20015;-89
2022/07/31 01:21:28;;;;;;;2.38;1.20;;;26.40;50.60;;;;;;7385463;19;20108;-89
2022/07/31 01:24:13;;;;;;;3.95;1.50;;;26.40;50.70;;;;;;7387032;19;20010;-89
2022/07/31 01:26:50;;;;;;;1.15;1.00;;;26.30;50.90;;;;;;7380978;19;20040;-88
2022/07/31 01:29:28;;;;;;;1.52;1.23;;;26.20;51.20;;;;;;7405126;19;20320;-89
2022/07/31 01:32:05;;;;;;;3.42;1.42;;;26.10;51.30;;;;;;7383581;19;20026;-89
2022/07/31 01:34:40;;;;;;;4.40;1.48;;;26.10;51.40;;;;;;7383534;19;20022;-89
2022/07/31 01:37:15;;;;;;;4.65;1.05;;;26.00;51.80;;;;;;7383040;19;20337;-89
2022/07/31 01:39:48;;;;;;;2.67;1.20;;;26.00;51.50;;;;;;7384510;19;20014;-89
2022/07/31 01:42:20;;;;;;;2.33;1.20;;;26.00;51.70;;;;;;7386430;19;20018;-89
2022/07/31 01:44:56;;;;;;;1.58;1.10;;;25.90;51.70;;;;;;7384450;19;20007;-87
2022/07/31 01:47:26;;;;;;;2.47;1.30;;;25.90;51.80;;;;;;7400056;19;20018;-87
2022/07/31 01:49:57;;;;;;;2.40;1.23;;;25.90;51.60;;;;;;7377891;19;20111;-87
2022/07/31 01:52:29;;;;;;;2.60;1.25;;;26.00;51.50;;;;;;7378969;19;20028;-88
2022/07/31 01:55:00;;;;;;;3.35;1.17;;;25.90;51.50;;;;;;7377887;19;20019;-88
2022/07/31 01:57:31;;;;;;;1.20;1.10;;;26.00;51.60;;;;;;7388412;19;20022;-90
2022/07/31 02:00:08;;;;;;;3.25;1.10;;;25.90;51.60;;;;;;7386919;19;20011;-89
2022/07/31 02:02:37;;;;;;;1.80;1.30;;;25.80;51.80;;;;;;7385328;19;20018;-89
2022/07/31 02:05:09;;;;;;;1.38;1.17;;;25.70;52.00;;;;;;7406696;19;20011;-89
2022/07/31 02:07:39;;;;;;;;;;;25.70;52.30;;;;;;7379755;19;20030;-88
2022/07/31 02:10:10;;;;;;;2.40;1.55;;;25.60;52.30;;;;;;7383868;19;19922;-88
2022/07/31 02:12:39;;;;;;;3.80;1.38;;;25.60;52.20;;;;;;7381731;19;20028;-88
2022/07/31 02:15:15;;;;;;;2.00;1.25;;;25.60;52.40;;;;;;7389302;19;20018;-89
2022/07/31 02:17:46;;;;;;;4.30;1.30;;;25.50;52.60;;;;;;7387609;19;20014;-88
2022/07/31 02:20:16;;;;;;;;;;;25.50;52.80;;;;;;7405648;19;20014;-88
2022/07/31 02:22:45;;;;;;;1.58;1.08;;;25.50;52.90;;;;;;7389523;19;19940;-89
2022/07/31 02:25:14;;;;;;;2.10;1.23;;;25.40;52.90;;;;;;7385745;19;20010;-89
2022/07/31 02:27:45;;;;;;;2.60;1.40;;;25.30;53.10;;;;;;7381648;19;20010;-89
2022/07/31 02:30:18;;;;;;;1.77;1.15;;;25.30;52.80;;;;;;7383400;19;20031;-88
2022/07/31 02:32:48;;;;;;;1.55;1.20;;;25.20;53.40;;;;;;7379570;19;20022;-87
2022/07/31 02:35:19;;;;;;;2.63;1.40;;;25.20;53.60;;;;;;7398612;19;20101;-86
2022/07/31 02:37:51;;;;;;;2.55;1.20;;;25.10;53.60;;;;;;7374299;19;20024;-86
2022/07/31 02:40:21;;;;;;;3.85;1.52;;;25.10;53.60;;;;;;7374665;19;20118;-87
2022/07/31 02:42:51;;;;;;;2.90;1.40;;;25.20;53.60;;;;;;7377595;19;20466;-87
2022/07/31 02:45:24;;;;;;;2.03;1.40;;;25.10;53.60;;;;;;7374279;19;20019;-87
2022/07/31 02:47:53;;;;;;;1.73;1.38;;;25.00;53.60;;;;;;7375302;19;20014;-86
2022/07/31 02:50:22;;;;;;;5.28;1.50;;;25.00;53.70;;;;;;7396434;19;20059;-87
2022/07/31 02:52:51;;;;;;;2.78;1.35;;;25.00;53.90;;;;;;7377082;19;20031;-87
2022/07/31 02:55:20;;;;;;;8.43;1.42;;;24.90;54.00;;;;;;7377507;19;20035;-86
2022/07/31 02:57:50;;;;;;;1.80;1.20;;;24.90;53.90;;;;;;7377868;19;20015;-86
2022/07/31 03:00:25;;;;;;;1.60;1.50;;;25.00;53.80;;;;;;7379696;19;20025;-87
2022/07/31 03:02:55;;;;;;;2.75;1.40;;;25.10;54.30;;;;;;7380394;19;20018;-86
2022/07/31 03:05:24;;;;;;;1.35;1.10;;;25.10;53.60;;;;;;7401849;19;20050;-86
2022/07/31 03:07:53;;;;;;;4.97;1.38;;;25.00;53.40;;;;;;7376908;19;20425;-86
2022/07/31 03:10:22;;;;;;;1.80;1.40;;;25.00;54.00;;;;;;7375633;19;20442;-85
2022/07/31 03:12:55;;;;;;;4.68;1.50;;;24.90;53.70;;;;;;7377856;19;20035;-85
2022/07/31 03:15:28;;;;;;;1.40;1.30;;;24.80;54.00;;;;;;7381190;19;20014;-85
2022/07/31 03:17:57;;;;;;;3.75;1.48;;;24.80;54.30;;;;;;7380684;19;20037;-85
2022/07/31 03:20:26;;;;;;;1.17;1.10;;;24.70;54.30;;;;;;7403561;19;20028;-85
2022/07/31 03:22:56;;;;;;;1.63;1.20;;;24.70;54.20;;;;;;7376969;19;20457;-86
2022/07/31 03:25:25;;;;;;;2.75;1.33;;;24.70;54.10;;;;;;7376925;19;20027;-85
2022/07/31 03:27:54;;;;;;;1.65;1.27;;;24.80;54.10;;;;;;7376464;19;20015;-85
2022/07/31 03:30:26;;;;;;;3.30;1.55;;;24.80;54.00;;;;;;7376720;19;20398;-87
2022/07/31 03:32:55;;;;;;;3.65;1.40;;;24.80;53.80;;;;;;7376613;19;20018;-88
2022/07/31 03:35:25;;;;;;;1.38;1.27;;;24.70;53.80;;;;;;7400629;19;20387;-87
2022/07/31 03:37:54;;;;;;;1.27;1.00;;;24.70;53.70;;;;;;7378256;19;20326;-88
2022/07/31 03:40:23;;;;;;;3.30;1.35;;;24.80;53.70;;;;;;7376481;19;20090;-87
2022/07/31 03:42:52;;;;;;;4.40;1.48;;;24.80;53.80;;;;;;7380794;19;20034;-87
2022/07/31 03:45:22;;;;;;;2.80;1.33;;;24.80;53.60;;;;;;7382243;19;20019;-87
2022/07/31 03:47:54;;;;;;;2.22;1.50;;;24.70;53.30;;;;;;7381178;19;20022;-88
2022/07/31 03:50:23;;;;;;;1.92;1.40;;;24.80;53.30;;;;;;7403329;19;20019;-87
2022/07/31 03:52:53;;;;;;;1.40;1.30;;;24.80;53.30;;;;;;7379924;19;20025;-87
2022/07/31 03:55:22;;;;;;;3.08;1.30;;;24.80;53.20;;;;;;7381393;19;20034;-87
2022/07/31 03:57:51;;;;;;;1.85;1.50;;;24.80;53.30;;;;;;7383943;19;20015;-88
2022/07/31 04:00:25;;;;;;;2.30;1.48;;;24.70;54.00;;;;;;7381454;19;20022;-88
2022/07/31 04:02:58;;;;;;;1.73;1.55;;;24.70;53.30;;;;;;7384076;19;20014;-88
2022/07/31 04:05:27;;;;;;;2.45;1.55;;;24.70;53.30;;;;;;7402858;19;20015;-88
2022/07/31 04:07:55;;;;;;;2.67;1.60;;;24.70;53.60;;;;;;7381828;19;20035;-87
2022/07/31 04:10:24;;;;;;;3.78;1.98;;;24.60;53.80;;;;;;7376587;19;20026;-87
2022/07/31 04:12:53;;;;;;;3.05;1.80;;;24.60;54.00;;;;;;7376049;19;20014;-87
2022/07/31 04:15:22;;;;;;;5.68;1.40;;;24.50;54.00;;;;;;7379220;19;20010;-88
2022/07/31 04:17:51;;;;;;;4.40;1.40;;;24.60;53.90;;;;;;7385664;19;20016;-89
2022/07/31 04:20:23;;;;;;;2.03;1.70;;;24.60;54.00;;;;;;7414542;19;20042;-89
2022/07/31 04:22:52;;;;;;;4.13;1.58;;;24.60;54.00;;;;;;7397832;19;20025;-89
2022/07/31 04:25:21;;;;;;;2.08;1.58;;;24.60;54.10;;;;;;7391283;19;20050;-87
2022/07/31 04:27:50;;;;;;;1.60;1.50;;;24.60;54.10;;;;;;7403919;19;20014;-87
2022/07/31 04:30:19;;;;;;;2.05;1.45;;;24.60;54.20;;;;;;7396219;19;20010;-87
2022/07/31 04:32:48;;;;;;;1.67;1.40;;;24.70;54.30;;;;;;7383044;19;20011;-89
2022/07/31 04:35:16;;;;;;;2.20;1.40;;;24.60;54.10;;;;;;7404642;19;20042;-89
2022/07/31 04:37:48;;;;;;;3.65;1.80;;;24.70;54.00;;;;;;7383105;19;20014;-88
2022/07/31 04:40:17;;;;;;;2.65;1.60;;;24.70;53.80;;;;;;7378123;19;20018;-88
2022/07/31 04:42:46;;;;;;;4.65;1.52;;;24.70;53.80;;;;;;7378014;19;20744;-88
2022/07/31 04:45:15;;;;;;;3.45;1.45;;;24.70;54.00;;;;;;7376376;19;20929;-87
2022/07/31 04:47:44;;;;;;;3.30;1.60;;;24.70;54.10;;;;;;7370431;19;20805;-87
2022/07/31 04:50:13;;;;;;;3.17;1.67;;;24.70;54.20;;;;;;7392030;19;20023;-86
2022/07/31 04:52:41;;;;;;;1.75;1.42;;;24.70;54.20;;;;;;7373146;19;20382;-87
2022/07/31 04:55:13;;;;;;;3.10;1.50;;;24.70;54.30;;;;;;7373416;19;20052;-88
2022/07/31 04:57:42;;;;;;;1.60;1.50;;;24.70;54.30;;;;;;7381932;19;20034;-89
2022/07/31 05:00:12;;;;;;;2.38;1.60;;;24.80;54.30;;;;;;7373513;19;20019;-86
2022/07/31 05:02:41;;;;;;;2.72;1.48;;;24.90;54.30;;;;;;7375562;19;20014;-87
2022/07/31 05:05:11;;;;;;;2.55;1.35;;;24.90;54.10;;;;;;7397061;19;20024;-87
2022/07/31 05:07:39;;;;;;;2.97;1.30;;;24.90;54.10;;;;;;7373622;19;20010;-87
2022/07/31 05:11:21;;;;;;;3.22;1.20;;;24.90;54.10;;;;;;7377444;19;20038;-87
2022/07/31 05:13:00;;;;;;;4.38;1.60;;;25.00;54.10;;;;;;7376710;19;20021;-87
2022/07/31 05:15:29;;;;;;;;;;;24.90;54.20;;;;;;7380560;19;20063;-87
2022/07/31 05:17:58;;;;;;;2.05;1.50;;;25.00;54.20;;;;;;7381945;19;19922;-88
2022/07/31 05:20:26;;;;;;;3.42;1.60;;;25.00;54.10;;;;;;7405006;19;20039;-88
2022/07/31 05:22:55;;;;;;;2.83;1.50;;;25.00;54.20;;;;;;7383295;19;20117;-87
2022/07/31 05:25:24;;;;;;;1.75;1.48;;;25.00;54.20;;;;;;7386896;19;20050;-88
2022/07/31 05:27:53;;;;;;;1.33;1.23;;;25.00;54.40;;;;;;7385971;19;20010;-87
2022/07/31 05:30:25;;;;;;;3.25;1.60;;;25.00;54.40;;;;;;7386273;19;20019;-87
2022/07/31 05:32:54;;;;;;;4.68;1.90;;;25.00;54.40;;;;;;7386243;19;20018;-86
2022/07/31 05:35:22;;;;;;;3.28;1.58;;;25.00;54.60;;;;;;7402846;19;20015;-87
2022/07/31 05:37:51;;;;;;;1.90;1.80;;;25.00;54.60;;;;;;7381856;19;20044;-88
2022/07/31 05:40:20;;;;;;;2.65;1.73;;;25.00;54.80;;;;;;7385026;19;20024;-89
2022/07/31 05:42:49;;;;;;;4.65;2.20;;;24.90;54.80;;;;;;7388868;19;20022;-89
2022/07/31 05:45:17;;;;;;;2.30;1.83;;;25.00;54.90;;;;;;7380136;19;20027;-88
2022/07/31 05:47:49;;;;;;;2.20;1.88;;;25.00;55.00;;;;;;7383311;19;20035;-89
2022/07/31 05:50:17;;;;;;;;;;;25.00;55.10;;;;;;7407897;19;20035;-89
2022/07/31 05:52:48;;;;;;;4.78;1.90;;;25.00;55.20;;;;;;7386868;19;19923;-89
2022/07/31 05:55:17;;;;;;;3.07;2.10;;;25.00;55.30;;;;;;7384722;19;20025;-88
2022/07/31 05:57:46;;;;;;;3.95;2.00;;;24.90;55.60;;;;;;7384075;19;20018;-88
2022/07/31 06:00:16;;;;;;;2.88;2.22;;;24.70;56.00;;;;;;7381031;19;20011;-87
2022/07/31 06:02:47;;;;;;;5.72;2.15;;;24.70;56.00;;;;;;7387424;19;20018;-88
2022/07/31 06:05:16;;;;;;;2.30;2.10;;;24.60;56.40;;;;;;7409778;19;20014;-88
2022/07/31 06:07:45;;;;;;;2.85;2.13;;;24.60;56.50;;;;;;7385391;19;20014;-88
2022/07/31 06:10:14;;;;;;;5.57;2.38;;;24.70;56.30;;;;;;7383849;19;20006;-87
2022/07/31 06:12:43;;;;;;;5.13;2.63;;;24.60;56.20;;;;;;7385801;19;20010;-88
2022/07/31 06:15:12;;;;;;;3.50;2.60;;;24.50;56.30;;;;;;7386379;19;20079;-88
2022/07/31 06:17:41;;;;;;;5.43;2.75;;;24.50;56.30;;;;;;7387366;19;20023;-87
2022/07/31 06:20:13;;;;;;;2.83;2.60;;;24.40;56.50;;;;;;7402415;19;20015;-87
2022/07/31 06:22:43;;;;;;;2.75;2.53;;;24.40;56.30;;;;;;7385885;19;20018;-88
2022/07/31 06:25:13;;;;;;;6.72;2.65;;;24.60;56.40;;;;;;7392410;19;20010;-85
2022/07/31 06:27:42;;;;;;;3.03;2.80;;;24.50;56.50;;;;;;7402570;19;20010;-88
2022/07/31 06:30:12;;;;;;;3.97;2.63;;;24.60;56.40;;;;;;7408086;19;20014;-89
2022/07/31 06:32:41;;;;;;;4.03;2.80;;;24.70;57.00;;;;;;7399501;19;20019;-88
2022/07/31 06:35:16;;;;;;;3.90;2.70;;;24.70;56.10;;;;;;7412922;19;20856;-88
2022/07/31 06:37:45;;;;;;;2.80;2.55;;;24.70;55.90;;;;;;7393085;19;20017;-88
2022/07/31 06:40:15;;;;;;;5.10;3.05;;;24.70;55.90;;;;;;7396961;19;20015;-88
2022/07/31 06:42:44;;;;;;;7.13;2.70;;;24.80;56.00;;;;;;7386246;19;20336;-88
2022/07/31 06:45:13;;;;;;;3.70;2.83;;;24.90;55.60;;;;;;7390810;19;20011;-89
2022/07/31 06:47:42;;;;;;;2.90;2.60;;;24.90;55.50;;;;;;7394878;19;20014;-89
2022/07/31 06:50:14;;;;;;;3.78;3.10;;;24.70;55.60;;;;;;7427502;19;20011;-89
2022/07/31 06:52:43;;;;;;;4.93;3.10;;;24.50;55.70;;;;;;7399601;19;20018;-88
2022/07/31 06:55:12;;;;;;;4.70;2.80;;;24.30;56.00;;;;;;7406908;19;20018;-88
2022/07/31 06:57:41;;;;;;;4.25;2.70;;;24.30;56.10;;;;;;7405188;19;20042;-88
2022/07/31 07:00:11;;;;;;;3.50;2.75;;;24.40;55.90;;;;;;7398326;19;20006;-88
2022/07/31 07:02:40;;;;;;;4.40;2.80;;;24.60;55.90;;;;;;7384493;19;20013;-87
2022/07/31 07:05:09;;;;;;;3.33;2.60;;;24.40;55.70;;;;;;7411520;19;20025;-88
2022/07/31 07:07:41;;;;;;;3.80;2.85;;;24.40;55.60;;;;;;7389207;19;20018;-88
2022/07/31 07:10:10;;;;;;;5.32;3.20;;;24.30;55.50;;;;;;7396860;19;20013;-89
2022/07/31 07:12:39;;;;;;;5.28;3.28;;;24.30;55.60;;;;;;7405224;19;20030;-89
2022/07/31 07:15:09;;;;;;;4.47;3.30;;;24.10;55.60;;;;;;7403534;19;20018;-88
2022/07/31 07:17:38;;;;;;;7.00;2.90;;;24.20;55.70;;;;;;7402804;19;20155;-88
2022/07/31 07:20:08;;;;;;;5.15;2.97;;;24.20;55.50;;;;;;7412367;19;20022;-87
2022/07/31 07:22:40;;;;;;;4.72;3.00;;;24.30;55.60;;;;;;7385969;19;20019;-86
2022/07/31 07:25:19;;;;;;;5.55;2.85;;;24.10;55.40;;;;;;7385465;19;20031;-82
2022/07/31 07:27:48;;;;;;;5.68;3.35;;;24.30;55.60;;;;;;7374567;19;20089;-86
2022/07/31 07:30:18;;;;;;;5.28;2.92;;;24.40;55.00;;;;;;7375900;19;20007;-84
2022/07/31 07:32:47;;;;;;;7.10;3.25;;;24.60;54.60;;;;;;7374380;19;20023;-84
2022/07/31 07:35:16;;;;;;;3.63;3.25;;;24.60;54.80;;;;;;7394877;19;20074;-86
2022/07/31 07:37:47;;;;;;;5.22;3.53;;;24.40;55.00;;;;;;7374508;19;20014;-86
2022/07/31 07:40:16;;;;;;;5.35;3.30;;;24.60;55.00;;;;;;7372794;19;20010;-82
2022/07/31 07:42:46;;;;;;;4.82;3.53;;;24.40;54.90;;;;;;7375094;19;20015;-84
2022/07/31 07:45:15;;;;;;;4.50;3.55;;;24.20;55.20;;;;;;7372822;19;20007;-84
2022/07/31 07:47:44;;;;;;;6.32;3.30;;;24.40;55.30;;;;;;7373825;19;20007;-82
2022/07/31 07:50:14;;;;;;;3.53;2.90;;;24.60;55.00;;;;;;7395698;19;20035;-83
2022/07/31 07:52:44;;;;;;;6.22;3.53;;;24.80;54.90;;;;;;7372405;19;20118;-82
2022/07/31 07:55:15;;;;;;;5.05;3.40;;;24.90;54.00;;;;;;7372092;19;20015;-83
2022/07/31 07:57:46;;;;;;;5.00;3.58;;;24.70;54.10;;;;;;7373212;19;20011;-82
2022/07/31 08:00:17;;;;;;;6.80;3.55;;;24.80;54.50;;;;;;7376033;19;20011;-84
2022/07/31 08:02:47;;;;;;;6.13;3.27;;;25.00;54.20;;;;;;7377038;19;20102;-81
2022/07/31 08:05:16;;;;;;;7.70;3.47;;;25.00;54.20;;;;;;7399116;19;20011;-82
2022/07/31 08:07:50;;;;;;;5.95;3.50;;;25.00;54.20;;;;;;7367967;19;20027;-84
2022/07/31 08:10:21;;;;;;;5.00;3.22;;;25.10;54.10;;;;;;7373390;19;20019;-83
2022/07/31 08:12:50;;;;;;;5.97;3.50;;;25.00;54.10;;;;;;7370842;19;20061;-83
2022/07/31 08:15:18;;;;;;;5.88;3.33;;;25.10;54.20;;;;;;7372829;19;20070;-83
2022/07/31 08:17:47;;;;;;;7.35;3.38;;;25.10;53.60;;;;;;7373641;19;20022;-83
2022/07/31 08:20:16;;;;;;;3.25;2.95;;;25.20;53.80;;;;;;7390812;19;20090;-83
2022/07/31 08:22:48;;;;;;;3.65;3.22;;;25.40;54.10;;;;;;7371556;19;20027;-82
2022/07/31 08:25:17;;;;;;;5.78;3.78;;;25.50;53.40;;;;;;7371980;19;20521;-83
2022/07/31 08:27:52;;;;;;;6.60;4.00;;;25.40;53.40;;;;;;7372470;19;20031;-82
2022/07/31 08:30:20;;;;;;;4.15;3.40;;;25.40;53.60;;;;;;7376527;19;20085;-83
2022/07/31 08:32:49;;;;;;;3.60;3.28;;;25.50;53.20;;;;;;7375989;19;21509;-82
2022/07/31 08:35:19;;;;;;;4.18;3.33;;;25.70;53.20;;;;;;7398147;19;20032;-82
2022/07/31 08:37:51;;;;;;;9.30;3.70;;;25.70;52.70;;;;;;7373170;19;20022;-82
2022/07/31 08:40:20;;;;;;;5.68;3.88;;;25.70;52.70;;;;;;7375108;19;20015;-81
2022/07/31 08:42:51;;;;;;;5.25;4.03;;;25.20;53.40;;;;;;7372395;19;20395;-81
2022/07/31 08:45:20;;;;;;;5.10;3.85;;;25.10;53.90;;;;;;7372291;19;20740;-82
2022/07/31 08:47:50;;;;;;;5.30;3.72;;;25.30;53.50;;;;;;7368852;19;20771;-82
2022/07/31 08:50:20;;;;;;;5.03;3.72;;;25.30;53.30;;;;;;7391355;19;20015;-82
2022/07/31 08:52:49;;;;;;;4.22;3.30;;;25.50;53.00;;;;;;7371258;19;20121;-82
2022/07/31 08:55:19;;;;;;;4.60;3.70;;;25.40;53.00;;;;;;7372489;19;20086;-82
2022/07/31 08:57:51;;;;;;;5.03;3.67;;;25.20;53.80;;;;;;7373557;19;20038;-83
2022/07/31 09:00:21;;;;;;;4.25;3.40;;;25.20;52.90;;;;;;7371841;19;20090;-82
2022/07/31 09:02:51;;;;;;;6.27;4.00;;;25.20;53.10;;;;;;7372099;19;20047;-82
2022/07/31 09:05:20;;;;;;;4.32;3.67;;;25.40;53.40;;;;;;7393154;19;20121;-82
2022/07/31 09:07:49;;;;;;;6.80;4.20;;;25.40;53.30;;;;;;7369847;19;20093;-82
2022/07/31 09:10:25;;;;;;;7.32;3.85;;;25.40;53.10;;;;;;7369807;19;20042;-82
2022/07/31 09:12:57;;;;;;;4.45;3.70;;;25.20;53.00;;;;;;7378835;19;20379;-82
2022/07/31 09:15:28;;;;;;;5.82;4.03;;;25.20;53.30;;;;;;7377240;19;20014;-81
2022/07/31 09:17:57;;;;;;;5.82;3.90;;;25.10;53.20;;;;;;7379261;19;20010;-84
2022/07/31 09:20:31;;;;;;;4.05;3.60;;;25.00;53.70;;;;;;7399103;19;20014;-82
2022/07/31 09:23:07;;;;;;;4.43;3.90;;;24.90;53.80;;;;;;7377598;19;20106;-81
2022/07/31 09:25:36;;;;;;;5.80;4.10;;;24.80;54.00;;;;;;7378073;19;20018;-81
2022/07/31 09:28:09;;;;;;;4.35;3.65;;;24.70;53.80;;;;;;7376295;19;20475;-81
2022/07/31 09:30:38;;;;;;;5.05;3.78;;;24.70;54.00;;;;;;7376919;19;20105;-79
2022/07/31 09:33:17;;;;;;;4.25;3.85;;;24.70;54.00;;;;;;7377493;19;20024;-80
2022/07/31 09:35:49;;;;;;;5.60;3.95;;;24.70;53.90;;;;;;7371993;19;20094;-80
2022/07/31 09:38:22;;;;;;;7.53;3.90;;;24.90;53.60;;;;;;7398490;19;20018;-83
2022/07/31 09:40:51;;;;;;;6.35;4.10;;;25.10;53.60;;;;;;7376582;19;20010;-83
2022/07/31 09:43:23;;;;;;;4.93;4.00;;;25.10;53.40;;;;;;7377654;19;20074;-82
2022/07/31 09:45:59;;;;;;;7.07;4.13;;;25.00;53.40;;;;;;7383670;19;20018;-84
2022/07/31 09:48:28;;;;;;;5.55;3.88;;;25.20;53.40;;;;;;7390412;19;20014;-86
2022/07/31 09:50:58;;;;;;;4.93;3.95;;;25.20;54.10;;;;;;7381886;19;20032;-84
2022/07/31 09:53:28;;;;;;;4.20;3.80;;;25.20;53.70;;;;;;7406502;19;20047;-87
2022/07/31 09:55:58;;;;;;;5.82;3.42;;;25.30;53.60;;;;;;7381035;19;20054;-87
2022/07/31 09:58:29;;;;;;;5.23;3.50;;;25.50;53.30;;;;;;7387343;19;20019;-78
2022/07/31 10:01:07;;;;;;;;;;;25.70;53.00;;;;;;7373874;19;20039;-83
2022/07/31 10:03:37;;;;;;;5.80;3.90;;;25.90;52.60;;;;;;7376451;19;19910;-84
2022/07/31 10:06:07;;;;;;;4.82;3.80;;;25.80;52.70;;;;;;7378819;19;20046;-85
2022/07/31 10:11:21;;;;;;;7.30;4.10;;;25.90;52.40;;;;;;7405500;19;20015;-83
2022/07/31 10:13:58;;;;;;;5.30;4.20;;;25.80;52.40;;;;;;7378706;19;20394;-84
2022/07/31 10:16:30;;;;;;;6.45;4.10;;;25.70;52.50;;;;;;7377899;19;20027;-84
2022/07/31 10:19:09;;;;;;;6.18;4.07;;;25.70;52.70;;;;;;7382447;19;20042;-84
2022/07/31 10:21:43;;;;;;;4.95;3.88;;;25.70;52.80;;;;;;7387674;19;20125;-83
2022/07/31 10:24:13;;;;;;;5.50;3.83;;;25.70;52.60;;;;;;7386333;19;20070;-83
2022/07/31 10:26:42;;;;;;;5.05;3.47;;;25.70;52.90;;;;;;7386159;19;20032;-83
2022/07/31 10:29:14;;;;;;;5.38;3.65;;;25.70;53.10;;;;;;7408167;19;20022;-84
2022/07/31 10:31:43;;;;;;;5.32;3.80;;;25.70;53.00;;;;;;7383395;19;20018;-86
2022/07/31 10:34:12;;;;;;;6.82;3.58;;;25.80;52.30;;;;;;7388524;19;20019;-86
2022/07/31 10:36:43;;;;;;;5.15;3.72;;;25.90;52.20;;;;;;7386252;19;20015;-84
2022/07/31 10:39:18;;;;;;;6.95;3.83;;;26.00;52.80;;;;;;7382416;19;20097;-85
2022/07/31 10:41:57;;;;;;;6.50;3.72;;;26.10;52.40;;;;;;7375645;19;20314;-85
2022/07/31 10:44:37;;;;;;;6.60;3.70;;;25.90;52.50;;;;;;7397552;19;20023;-84
2022/07/31 10:47:14;;;;;;;7.60;3.70;;;25.90;52.60;;;;;;7375477;19;20018;-84
2022/07/31 10:49:47;;;;;;;13.90;3.72;;;25.90;52.30;;;;;;7376173;19;20300;-85
2022/07/31 10:52:17;;;;;;;5.80;3.70;;;26.00;52.80;;;;;;7373495;19;20070;-84
2022/07/31 10:54:49;;;;;;;6.40;3.58;;;26.10;52.30;;;;;;7374859;19;20330;-84
2022/07/31 10:57:24;;;;;;;4.78;3.63;;;26.30;52.00;;;;;;7379871;19;20390;-84
2022/07/31 10:59:56;;;;;;;5.45;3.42;;;26.00;51.70;;;;;;7382552;19;20022;-85
2022/07/31 11:02:33;;;;;;;7.30;3.55;;;25.90;52.00;;;;;;7396685;19;20018;-85
2022/07/31 11:05:10;;;;;;;4.47;3.55;;;26.10;51.90;;;;;;7374744;19;20015;-85
2022/07/31 11:07:39;;;;;;;3.83;3.38;;;26.20;51.40;;;;;;7374835;19;20036;-85
2022/07/31 11:10:19;;;;;;;4.32;3.72;;;26.30;51.80;;;;;;7372202;19;20019;-85
2022/07/31 11:12:59;;;;;;;3.60;3.30;;;26.40;51.30;;;;;;7377493;19;20017;-86
2022/07/31 11:15:31;;;;;;;5.63;3.50;;;26.70;51.10;;;;;;7378127;19;20022;-85
2022/07/31 11:18:00;;;;;;;3.75;3.13;;;26.80;50.80;;;;;;7385740;19;20043;-85
2022/07/31 11:20:32;;;;;;;4.22;3.60;;;27.00;50.60;;;;;;7407709;19;20010;-82
2022/07/31 11:23:15;;;;;;;4.90;3.60;;;27.00;50.10;;;;;;7383434;19;20031;-87
2022/07/31 11:32:30;;;;;;;4.53;3.42;;;26.90;50.10;;;;;;7376717;19;20010;-82
2022/07/31 11:48:48;;;;;;;3.90;3.20;;;27.50;49.20;;;;;;7378061;19;20010;-84
2022/07/31 11:51:35;;;;;;;9.10;3.10;;;27.30;49.80;;;;;;7399887;19;20022;-89
2022/07/31 13:04:43;;;;;;;5.88;2.30;;;28.60;48.10;;;;;;7399701;19;20032;-85
2022/07/31 13:22:48;;;;;;;3.75;2.47;;;28.90;47.20;;;;;;7393980;19;20027;-85
2022/07/31 13:25:27;;;;;;;;;;;;;;;;;;;;;
2022/07/31 13:27:56;;;;;;;2.50;2.30;;;29.10;47.20;;;;;;7377987;19;20022;-85
2022/07/31 13:30:42;;;;;;;2.95;2.60;;;29.00;48.20;;;;;;7375589;19;20022;-87
2022/07/31 13:33:11;;;;;;;3.33;2.38;;;29.10;47.40;;;;;;7391631;19;20010;-86
2022/07/31 13:35:40;;;;;;;2.95;2.10;;;29.30;46.80;;;;;;7389131;19;20025;-85
2022/07/31 13:38:13;;;;;;;4.88;2.40;;;29.10;46.90;;;;;;7403625;19;20040;-85
2022/07/31 13:43:25;;;;;;;;;;;29.10;47.00;;;;;;7379105;19;20013;-86
2022/07/31 13:45:53;;;;;;;3.15;2.20;;;29.10;47.00;;;;;;7384887;19;20294;-86
2022/07/31 13:48:22;;;;;;;2.30;2.08;;;29.20;46.90;;;;;;7376577;19;20067;-86
2022/07/31 13:50:51;;;;;;;2.42;1.98;;;29.40;46.70;;;;;;7378272;19;20004;-86
2022/07/31 13:53:24;;;;;;;2.65;1.85;;;29.40;46.10;;;;;;7400204;19;20018;-86
2022/07/31 13:55:52;;;;;;;3.10;2.00;;;29.50;45.50;;;;;;7375689;19;20014;-85
2022/07/31 13:58:21;;;;;;;2.38;1.98;;;29.40;46.20;;;;;;7376496;19;20452;-85
2022/07/31 14:00:53;;;;;;;1.90;1.80;;;29.40;45.90;;;;;;7385907;19;20046;-86
2022/07/31 14:03:21;;;;;;;2.22;2.10;;;29.60;45.40;;;;;;7381613;19;20018;-87
2022/07/31 14:05:51;;;;;;;3.13;1.88;;;29.80;45.50;;;;;;7378943;19;20008;-87
2022/07/31 14:08:23;;;;;;;2.63;2.20;;;30.00;45.40;;;;;;7409272;19;20023;-87
2022/07/31 14:10:52;;;;;;;2.80;2.10;;;30.10;44.90;;;;;;7378395;19;20383;-86
2022/07/31 14:13:21;;;;;;;2.13;1.83;;;30.20;44.80;;;;;;7379856;19;20010;-86
2022/07/31 14:15:50;;;;;;;1.98;1.70;;;30.30;44.20;;;;;;7375295;19;20087;-85
2022/07/31 14:18:19;;;;;;;2.53;1.90;;;30.30;44.10;;;;;;7380457;19;20038;-86
2022/07/31 14:20:50;;;;;;;2.47;1.80;;;30.40;44.20;;;;;;7379706;19;20387;-86
2022/07/31 14:23:22;;;;;;;3.28;2.10;;;30.40;44.20;;;;;;7398629;19;20348;-85
2022/07/31 14:25:50;;;;;;;2.20;2.10;;;30.50;44.20;;;;;;7383217;19;20023;-86
2022/07/31 14:28:19;;;;;;;2.13;1.90;;;30.60;44.30;;;;;;7387779;19;20010;-87
2022/07/31 14:30:48;;;;;;;2.67;2.15;;;30.60;43.10;;;;;;7387234;19;20034;-86
2022/07/31 14:33:17;;;;;;;3.42;2.10;;;30.60;43.60;;;;;;7388173;19;20011;-87
2022/07/31 14:35:46;;;;;;;2.47;2.30;;;30.50;43.40;;;;;;7388018;19;20625;-86
2022/07/31 14:38:15;;;;;;;2.28;1.98;;;30.50;43.80;;;;;;7408871;19;20014;-86
2022/07/31 14:41:02;;;;;;;;;;;;;;;;;;;;;
2022/07/31 14:49:19;;;;;;;4.25;2.53;;;30.60;43.90;;;;;;7340231;19;20009;-86
2022/07/31 14:52:15;;;;;;;2.25;2.10;;;30.60;43.80;;;;;;7383470;19;20015;-86
2022/07/31 14:54:52;;;;;;;3.93;2.30;;;30.50;43.80;;;;;;7384825;19;20019;-84
2022/07/31 14:57:32;;;;;;;3.53;2.40;;;30.60;44.00;;;;;;7384702;19;20066;-85
2022/07/31 15:00:02;;;;;;;2.42;2.33;;;30.70;43.60;;;;;;7383138;19;20038;-84
2022/07/31 15:02:39;;;;;;;3.05;2.45;;;30.80;43.50;;;;;;7385596;19;20191;-84
2022/07/31 15:05:09;;;;;;;3.95;2.30;;;30.90;43.50;;;;;;7398057;19;20085;-82
2022/07/31 15:07:38;;;;;;;3.15;2.30;;;31.10;43.30;;;;;;7372588;19;20044;-82